sensor_id;sensor_type;location;lat;lon;timestamp;P1;durP1;ratioP1;P2;durP2;ratioP2
26914;SDS011;14480;52.608;13.416;2022-09-29T06:09:33;23.00;;;14.52;;
26914;SDS011;14480;52.608;13.416;2022-09-29T06:14:37;21.23;;;14.30;;
26914;SDS011;14480;52.608;13.416;2022-09-29T06:19:41;22.85;;;14.85;;
26914;SDS011;14480;52.608;13.416;2022-09-29T06:29:50;22.92;;;15.02;;
26914;SDS011;14480;52.608;13.416;2022-09-29T06:34:54;28.23;;;18.63;;
26914;SDS011;14480;52.608;13.416;2022-09-29T06:40:17;23.70;;;15.57;;
26914;SDS011;14480;52.608;13.416;2022-09-29T06:45:25;25.77;;;17.33;;
26914;SDS011;14480;52.608;13.416;2022-09-29T06:50:47;30.48;;;17.60;;
26914;SDS011;14480;52.608;13.416;2022-09-29T06:56:15;24.20;;;15.65;;
26914;SDS011;14480;52.608;13.416;2022-09-29T07:01:32;25.85;;;16.15;;
26914;SDS011;14480;52.608;13.416;2022-09-29T07:06:53;28.55;;;16.20;;
26914;SDS011;14480;52.608;13.416;2022-09-29T07:11:59;25.70;;;16.00;;
26914;SDS011;14480;52.608;13.416;2022-09-29T07:17:02;24.88;;;16.08;;
26914;SDS011;14480;52.608;13.416;2022-09-29T07:22:07;27.40;;;16.27;;
26914;SDS011;14480;52.608;13.416;2022-09-29T07:27:13;22.08;;;14.80;;
26914;SDS011;14480;52.608;13.416;2022-09-29T07:37:29;21.90;;;14.00;;
26914;SDS011;14480;52.608;13.416;2022-09-29T07:42:35;24.63;;;15.00;;
26914;SDS011;14480;52.608;13.416;2022-09-29T07:47:39;23.25;;;14.90;;
26914;SDS011;14480;52.608;13.416;2022-09-29T07:52:43;21.75;;;14.20;;
26914;SDS011;14480;52.608;13.416;2022-09-29T07:57:48;24.97;;;15.60;;
26914;SDS011;14480;52.608;13.416;2022-09-29T08:02:52;22.00;;;13.65;;
26914;SDS011;14480;52.608;13.416;2022-09-29T08:07:56;24.60;;;13.60;;
26914;SDS011;14480;52.608;13.416;2022-09-29T08:13:01;22.65;;;13.70;;
26914;SDS011;14480;52.608;13.416;2022-09-29T08:18:05;22.73;;;13.15;;
26914;SDS011;14480;52.608;13.416;2022-09-29T08:23:09;33.67;;;15.45;;
26914;SDS011;14480;52.608;13.416;2022-09-29T08:28:14;22.10;;;13.30;;
26914;SDS011;14480;52.608;13.416;2022-09-29T08:33:33;22.20;;;13.70;;
26914;SDS011;14480;52.608;13.416;2022-09-29T08:38:37;24.30;;;13.68;;
26914;SDS011;14480;52.608;13.416;2022-09-29T08:43:47;23.98;;;15.45;;
26914;SDS011;14480;52.608;13.416;2022-09-29T08:48:54;28.30;;;14.98;;
26914;SDS011;14480;52.608;13.416;2022-09-29T08:54:05;20.83;;;13.90;;
26914;SDS011;14480;52.608;13.416;2022-09-29T08:59:19;21.90;;;15.50;;
26914;SDS011;14480;52.608;13.416;2022-09-29T09:04:37;30.25;;;18.13;;
26914;SDS011;14480;52.608;13.416;2022-09-29T09:09:54;20.98;;;14.93;;
26914;SDS011;14480;52.608;13.416;2022-09-29T09:15:22;20.35;;;14.38;;
26914;SDS011;14480;52.608;13.416;2022-09-29T09:20:40;20.40;;;12.75;;
26914;SDS011;14480;52.608;13.416;2022-09-29T09:25:49;19.42;;;12.93;;
26914;SDS011;14480;52.608;13.416;2022-09-29T09:31:08;20.00;;;12.63;;
26914;SDS011;14480;52.608;13.416;2022-09-29T09:36:16;21.02;;;13.27;;
26914;SDS011;14480;52.608;13.416;2022-09-29T09:41:35;18.83;;;13.52;;
26914;SDS011;14480;52.608;13.416;2022-09-29T09:46:42;20.73;;;14.30;;
26914;SDS011;14480;52.608;13.416;2022-09-29T09:51:53;17.00;;;12.63;;
26914;SDS011;14480;52.608;13.416;2022-09-29T09:57:08;16.60;;;11.63;;
26914;SDS011;14480;52.608;13.416;2022-09-29T10:02:41;17.17;;;11.35;;
26914;SDS011;14480;52.608;13.416;2022-09-29T10:07:50;17.60;;;12.07;;
26914;SDS011;14480;52.608;13.416;2022-09-29T10:12:57;15.70;;;10.77;;
26914;SDS011;14480;52.608;13.416;2022-09-29T10:18:11;12.13;;;8.35;;
26914;SDS011;14480;52.608;13.416;2022-09-29T10:23:28;11.32;;;8.02;;
26914;SDS011;14480;52.608;13.416;2022-09-29T10:28:38;15.77;;;8.73;;
26914;SDS011;14480;52.608;13.416;2022-09-29T10:33:49;12.05;;;8.40;;
26914;SDS011;14480;52.608;13.416;2022-09-29T10:39:03;11.38;;;7.47;;
26914;SDS011;14480;52.608;13.416;2022-09-29T10:44:16;16.17;;;7.90;;
26914;SDS011;14480;52.608;13.416;2022-09-29T10:49:25;9.57;;;6.95;;
26914;SDS011;14480;52.608;13.416;2022-09-29T10:54:34;11.70;;;7.35;;
26914;SDS011;14480;52.608;13.416;2022-09-29T10:59:45;9.27;;;6.30;;
26914;SDS011;14480;52.608;13.416;2022-09-29T11:04:52;8.95;;;5.65;;
26914;SDS011;14480;52.608;13.416;2022-09-29T11:09:58;14.05;;;8.48;;
26914;SDS011;14480;52.608;13.416;2022-09-29T11:15:20;7.25;;;5.45;;
26914;SDS011;14480;52.608;13.416;2022-09-29T11:20:29;13.52;;;5.78;;
26914;SDS011;14480;52.608;13.416;2022-09-29T11:31:22;6.10;;;3.55;;
26914;SDS011;14480;52.608;13.416;2022-09-29T11:36:40;7.65;;;3.90;;
26914;SDS011;14480;52.608;13.416;2022-09-29T11:47:05;5.78;;;3.65;;
26914;SDS011;14480;52.608;13.416;2022-09-29T11:52:28;10.35;;;3.70;;
26914;SDS011;14480;52.608;13.416;2022-09-29T11:57:51;4.57;;;2.80;;
26914;SDS011;14480;52.608;13.416;2022-09-29T12:03:14;6.57;;;3.17;;
26914;SDS011;14480;52.608;13.416;2022-09-29T12:08:33;7.15;;;3.40;;
26914;SDS011;14480;52.608;13.416;2022-09-29T12:13:50;5.75;;;2.38;;
26914;SDS011;14480;52.608;13.416;2022-09-29T12:19:02;3.50;;;2.00;;
26914;SDS011;14480;52.608;13.416;2022-09-29T12:24:13;4.80;;;2.60;;
26914;SDS011;14480;52.608;13.416;2022-09-29T12:29:26;5.07;;;2.38;;
26914;SDS011;14480;52.608;13.416;2022-09-29T12:34:38;4.60;;;2.30;;
26914;SDS011;14480;52.608;13.416;2022-09-29T12:39:51;4.47;;;2.72;;
26914;SDS011;14480;52.608;13.416;2022-09-29T12:45:05;6.90;;;4.18;;
26914;SDS011;14480;52.608;13.416;2022-09-29T12:50:15;5.70;;;3.58;;
26914;SDS011;14480;52.608;13.416;2022-09-29T12:55:27;6.15;;;3.70;;
26914;SDS011;14480;52.608;13.416;2022-09-29T13:00:54;5.90;;;3.67;;
26914;SDS011;14480;52.608;13.416;2022-09-29T13:06:12;6.73;;;4.23;;
26914;SDS011;14480;52.608;13.416;2022-09-29T13:11:47;6.78;;;4.20;;
26914;SDS011;14480;52.608;13.416;2022-09-29T13:17:09;5.97;;;3.45;;
26914;SDS011;14480;52.608;13.416;2022-09-29T13:22:35;6.25;;;3.65;;
26914;SDS011;14480;52.608;13.416;2022-09-29T13:27:53;5.97;;;3.40;;
26914;SDS011;14480;52.608;13.416;2022-09-29T13:33:06;4.43;;;2.67;;
26914;SDS011;14480;52.608;13.416;2022-09-29T13:38:14;4.85;;;3.63;;
26914;SDS011;14480;52.608;13.416;2022-09-29T13:43:38;8.48;;;4.57;;
26914;SDS011;14480;52.608;13.416;2022-09-29T13:49:13;6.82;;;4.05;;
26914;SDS011;14480;52.608;13.416;2022-09-29T13:54:25;5.18;;;3.78;;
26914;SDS011;14480;52.608;13.416;2022-09-29T13:59:32;6.93;;;4.13;;
26914;SDS011;14480;52.608;13.416;2022-09-29T14:04:42;6.13;;;4.18;;
26914;SDS011;14480;52.608;13.416;2022-09-29T14:09:50;8.18;;;4.22;;
26914;SDS011;14480;52.608;13.416;2022-09-29T14:14:56;8.90;;;5.32;;
26914;SDS011;14480;52.608;13.416;2022-09-29T14:20:05;9.13;;;4.03;;
26914;SDS011;14480;52.608;13.416;2022-09-29T14:25:26;7.50;;;4.00;;
26914;SDS011;14480;52.608;13.416;2022-09-29T14:30:42;9.60;;;4.20;;
26914;SDS011;14480;52.608;13.416;2022-09-29T14:35:54;4.10;;;2.90;;
26914;SDS011;14480;52.608;13.416;2022-09-29T14:41:18;5.57;;;3.30;;
26914;SDS011;14480;52.608;13.416;2022-09-29T14:52:26;6.93;;;4.07;;
26914;SDS011;14480;52.608;13.416;2022-09-29T14:57:46;4.57;;;3.15;;
26914;SDS011;14480;52.608;13.416;2022-09-29T15:08:29;5.10;;;3.35;;
26914;SDS011;14480;52.608;13.416;2022-09-29T15:13:35;4.95;;;3.50;;
26914;SDS011;14480;52.608;13.416;2022-09-29T15:18:53;7.90;;;5.27;;
26914;SDS011;14480;52.608;13.416;2022-09-29T15:24:30;6.22;;;4.25;;
26914;SDS011;14480;52.608;13.416;2022-09-29T15:29:55;5.72;;;4.40;;
26914;SDS011;14480;52.608;13.416;2022-09-29T15:35:06;7.05;;;4.55;;
26914;SDS011;14480;52.608;13.416;2022-09-29T15:40:17;7.53;;;4.22;;
26914;SDS011;14480;52.608;13.416;2022-09-29T15:45:23;8.00;;;4.72;;
26914;SDS011;14480;52.608;13.416;2022-09-29T15:50:31;8.32;;;4.57;;
26914;SDS011;14480;52.608;13.416;2022-09-29T15:55:37;9.20;;;4.35;;
26914;SDS011;14480;52.608;13.416;2022-09-29T16:00:42;9.80;;;4.85;;
26914;SDS011;14480;52.608;13.416;2022-09-29T16:05:53;9.38;;;4.90;;
26914;SDS011;14480;52.608;13.416;2022-09-29T16:11:01;9.93;;;4.77;;
26914;SDS011;14480;52.608;13.416;2022-09-29T16:16:09;6.85;;;4.75;;
26914;SDS011;14480;52.608;13.416;2022-09-29T16:21:17;7.72;;;5.05;;
26914;SDS011;14480;52.608;13.416;2022-09-29T16:26:32;8.13;;;4.97;;
26914;SDS011;14480;52.608;13.416;2022-09-29T16:31:37;8.65;;;5.47;;
26914;SDS011;14480;52.608;13.416;2022-09-29T16:36:44;8.50;;;5.22;;
26914;SDS011;14480;52.608;13.416;2022-09-29T16:41:55;9.93;;;5.32;;
26914;SDS011;14480;52.608;13.416;2022-09-29T16:47:02;8.48;;;6.20;;
26914;SDS011;14480;52.608;13.416;2022-09-29T16:52:18;8.60;;;5.18;;
26914;SDS011;14480;52.608;13.416;2022-09-29T16:57:29;10.75;;;6.03;;
26914;SDS011;14480;52.608;13.416;2022-09-29T17:02:36;9.00;;;4.85;;
26914;SDS011;14480;52.608;13.416;2022-09-29T17:07:45;12.15;;;6.50;;
26914;SDS011;14480;52.608;13.416;2022-09-29T17:12:49;10.45;;;6.32;;
26914;SDS011;14480;52.608;13.416;2022-09-29T17:17:53;10.68;;;6.68;;
26914;SDS011;14480;52.608;13.416;2022-09-29T17:22:58;14.35;;;7.57;;
26914;SDS011;14480;52.608;13.416;2022-09-29T17:28:02;23.02;;;11.43;;
26914;SDS011;14480;52.608;13.416;2022-09-29T17:33:16;18.75;;;10.57;;
26914;SDS011;14480;52.608;13.416;2022-09-29T17:38:23;15.85;;;9.32;;
26914;SDS011;14480;52.608;13.416;2022-09-29T17:43:33;14.98;;;8.77;;
26914;SDS011;14480;52.608;13.416;2022-09-29T17:48:39;13.65;;;8.55;;
26914;SDS011;14480;52.608;13.416;2022-09-29T17:53:45;10.95;;;8.27;;
26914;SDS011;14480;52.608;13.416;2022-09-29T17:58:49;14.20;;;8.65;;
26914;SDS011;14480;52.608;13.416;2022-09-29T18:03:52;11.13;;;7.95;;
26914;SDS011;14480;52.608;13.416;2022-09-29T18:09:02;14.60;;;9.05;;
26914;SDS011;14480;52.608;13.416;2022-09-29T18:14:15;15.40;;;9.50;;
26914;SDS011;14480;52.608;13.416;2022-09-29T18:19:20;15.80;;;10.23;;
26914;SDS011;14480;52.608;13.416;2022-09-29T18:24:26;25.60;;;16.15;;
26914;SDS011;14480;52.608;13.416;2022-09-29T18:29:30;19.35;;;13.15;;
26914;SDS011;14480;52.608;13.416;2022-09-29T18:34:35;21.57;;;12.97;;
26914;SDS011;14480;52.608;13.416;2022-09-29T18:39:49;22.15;;;12.57;;
26914;SDS011;14480;52.608;13.416;2022-09-29T18:44:55;21.15;;;12.57;;
26914;SDS011;14480;52.608;13.416;2022-09-29T18:50:00;19.53;;;12.23;;
26914;SDS011;14480;52.608;13.416;2022-09-29T18:55:08;16.73;;;11.27;;
26914;SDS011;14480;52.608;13.416;2022-09-29T19:00:14;17.63;;;11.10;;
26914;SDS011;14480;52.608;13.416;2022-09-29T19:05:21;17.35;;;10.27;;
26914;SDS011;14480;52.608;13.416;2022-09-29T19:10:33;19.13;;;10.82;;
26914;SDS011;14480;52.608;13.416;2022-09-29T19:15:39;16.90;;;10.88;;
26914;SDS011;14480;52.608;13.416;2022-09-29T19:20:45;19.45;;;12.20;;
26914;SDS011;14480;52.608;13.416;2022-09-29T19:25:51;19.08;;;12.00;;
26914;SDS011;14480;52.608;13.416;2022-09-29T19:31:02;19.33;;;12.23;;
26914;SDS011;14480;52.608;13.416;2022-09-29T19:36:08;20.65;;;13.38;;
26914;SDS011;14480;52.608;13.416;2022-09-29T19:46:40;25.33;;;16.33;;
26914;SDS011;14480;52.608;13.416;2022-09-29T19:51:47;26.85;;;15.98;;
26914;SDS011;14480;52.608;13.416;2022-09-29T19:56:57;28.77;;;17.58;;
26914;SDS011;14480;52.608;13.416;2022-09-29T20:02:04;25.60;;;16.65;;
26914;SDS011;14480;52.608;13.416;2022-09-29T20:07:13;27.77;;;16.48;;
26914;SDS011;14480;52.608;13.416;2022-09-29T20:12:18;26.48;;;16.88;;
26914;SDS011;14480;52.608;13.416;2022-09-29T20:17:22;27.63;;;17.77;;
26914;SDS011;14480;52.608;13.416;2022-09-29T20:22:26;28.73;;;17.20;;
26914;SDS011;14480;52.608;13.416;2022-09-29T20:27:36;23.45;;;15.73;;
26914;SDS011;14480;52.608;13.416;2022-09-29T20:32:43;27.08;;;16.52;;
26914;SDS011;14480;52.608;13.416;2022-09-29T20:37:48;28.52;;;17.13;;
26914;SDS011;14480;52.608;13.416;2022-09-29T20:42:56;27.27;;;16.70;;
26914;SDS011;14480;52.608;13.416;2022-09-29T20:48:00;24.42;;;16.00;;
26914;SDS011;14480;52.608;13.416;2022-09-29T20:53:04;22.48;;;14.90;;
26914;SDS011;14480;52.608;13.416;2022-09-29T20:58:09;29.77;;;18.23;;
26914;SDS011;14480;52.608;13.416;2022-09-29T21:03:15;31.92;;;18.77;;
26914;SDS011;14480;52.608;13.416;2022-09-29T21:08:25;28.50;;;17.98;;
26914;SDS011;14480;52.608;13.416;2022-09-29T21:13:30;25.10;;;17.00;;
26914;SDS011;14480;52.608;13.416;2022-09-29T21:24:00;26.42;;;16.63;;
